sensor_id;sensor_type;location;lat;lon;timestamp;temperature;humidity
30304;DHT22;17112;48.636;10.152;2023-07-28T00:01:55;19.40;66.80
30304;DHT22;17112;48.636;10.152;2023-07-28T00:04:21;19.40;66.80
30304;DHT22;17112;48.636;10.152;2023-07-28T00:06:47;19.30;66.90
30304;DHT22;17112;48.636;10.152;2023-07-28T00:09:12;19.30;67.10
30304;DHT22;17112;48.636;10.152;2023-07-28T00:11:38;19.20;67.20
30304;DHT22;17112;48.636;10.152;2023-07-28T00:14:04;19.20;67.20
30304;DHT22;17112;48.636;10.152;2023-07-28T00:16:29;19.10;67.10
30304;DHT22;17112;48.636;10.152;2023-07-28T00:18:55;19.10;67.30
30304;DHT22;17112;48.636;10.152;2023-07-28T00:21:21;19.10;67.40
30304;DHT22;17112;48.636;10.152;2023-07-28T00:23:46;19.00;67.30
30304;DHT22;17112;48.636;10.152;2023-07-28T00:26:12;19.00;67.30
30304;DHT22;17112;48.636;10.152;2023-07-28T00:28:38;18.90;67.40
30304;DHT22;17112;48.636;10.152;2023-07-28T00:31:03;18.90;67.30
30304;DHT22;17112;48.636;10.152;2023-07-28T00:33:29;18.80;67.30
30304;DHT22;17112;48.636;10.152;2023-07-28T00:35:54;18.80;67.50
30304;DHT22;17112;48.636;10.152;2023-07-28T00:38:20;18.70;67.50
30304;DHT22;17112;48.636;10.152;2023-07-28T00:40:46;18.70;67.60
30304;DHT22;17112;48.636;10.152;2023-07-28T00:43:11;18.60;67.60
30304;DHT22;17112;48.636;10.152;2023-07-28T00:45:37;18.60;67.60
30304;DHT22;17112;48.636;10.152;2023-07-28T00:48:10;18.60;67.70
30304;DHT22;17112;48.636;10.152;2023-07-28T00:50:38;18.50;68.70
30304;DHT22;17112;48.636;10.152;2023-07-28T00:53:04;18.40;67.60
30304;DHT22;17112;48.636;10.152;2023-07-28T00:55:30;18.40;67.70
30304;DHT22;17112;48.636;10.152;2023-07-28T00:57:56;18.40;67.80
30304;DHT22;17112;48.636;10.152;2023-07-28T01:00:22;18.30;67.90
30304;DHT22;17112;48.636;10.152;2023-07-28T01:02:48;18.20;67.80
30304;DHT22;17112;48.636;10.152;2023-07-28T01:05:13;18.20;67.80
30304;DHT22;17112;48.636;10.152;2023-07-28T01:11:00;18.10;68.50
30304;DHT22;17112;48.636;10.152;2023-07-28T01:13:25;18.10;67.80
30304;DHT22;17112;48.636;10.152;2023-07-28T01:15:51;18.00;68.00
30304;DHT22;17112;48.636;10.152;2023-07-28T01:18:17;18.00;68.30
30304;DHT22;17112;48.636;10.152;2023-07-28T01:20:43;18.00;68.40
30304;DHT22;17112;48.636;10.152;2023-07-28T01:23:19;17.90;68.40
30304;DHT22;17112;48.636;10.152;2023-07-28T01:26:12;17.90;68.90
30304;DHT22;17112;48.636;10.152;2023-07-28T01:28:41;17.90;68.90
30304;DHT22;17112;48.636;10.152;2023-07-28T01:31:08;17.80;68.30
30304;DHT22;17112;48.636;10.152;2023-07-28T01:33:34;17.80;68.50
30304;DHT22;17112;48.636;10.152;2023-07-28T01:36:00;17.70;68.50
30304;DHT22;17112;48.636;10.152;2023-07-28T01:38:27;17.70;68.70
30304;DHT22;17112;48.636;10.152;2023-07-28T01:40:52;17.70;68.80
30304;DHT22;17112;48.636;10.152;2023-07-28T01:43:18;17.60;68.90
30304;DHT22;17112;48.636;10.152;2023-07-28T01:45:44;17.60;69.00
30304;DHT22;17112;48.636;10.152;2023-07-28T01:48:10;17.60;69.00
30304;DHT22;17112;48.636;10.152;2023-07-28T01:50:36;17.60;69.00
30304;DHT22;17112;48.636;10.152;2023-07-28T01:53:02;17.50;68.80
30304;DHT22;17112;48.636;10.152;2023-07-28T01:55:28;17.50;68.90
30304;DHT22;17112;48.636;10.152;2023-07-28T01:57:58;17.50;68.90
30304;DHT22;17112;48.636;10.152;2023-07-28T02:00:24;17.50;69.00
30304;DHT22;17112;48.636;10.152;2023-07-28T02:02:51;17.40;68.70
30304;DHT22;17112;48.636;10.152;2023-07-28T02:05:17;17.40;68.60
30304;DHT22;17112;48.636;10.152;2023-07-28T02:07:42;17.30;68.50
30304;DHT22;17112;48.636;10.152;2023-07-28T02:10:09;17.30;68.60
30304;DHT22;17112;48.636;10.152;2023-07-28T02:12:36;17.30;68.60
30304;DHT22;17112;48.636;10.152;2023-07-28T02:15:02;17.20;68.60
30304;DHT22;17112;48.636;10.152;2023-07-28T02:17:27;17.20;68.70
30304;DHT22;17112;48.636;10.152;2023-07-28T02:19:53;17.10;68.70
30304;DHT22;17112;48.636;10.152;2023-07-28T02:22:19;17.10;68.80
30304;DHT22;17112;48.636;10.152;2023-07-28T02:24:44;17.10;68.80
30304;DHT22;17112;48.636;10.152;2023-07-28T02:27:10;17.10;68.90
30304;DHT22;17112;48.636;10.152;2023-07-28T02:29:36;17.10;68.90
30304;DHT22;17112;48.636;10.152;2023-07-28T02:32:01;17.00;69.00
30304;DHT22;17112;48.636;10.152;2023-07-28T02:34:27;17.00;69.00
30304;DHT22;17112;48.636;10.152;2023-07-28T02:36:53;16.90;69.00
30304;DHT22;17112;48.636;10.152;2023-07-28T02:39:19;16.90;69.00
30304;DHT22;17112;48.636;10.152;2023-07-28T02:41:46;16.90;69.00
30304;DHT22;17112;48.636;10.152;2023-07-28T02:44:11;16.80;69.00
30304;DHT22;17112;48.636;10.152;2023-07-28T02:46:37;16.80;69.00
30304;DHT22;17112;48.636;10.152;2023-07-28T02:49:03;16.80;69.10
30304;DHT22;17112;48.636;10.152;2023-07-28T02:51:30;16.80;69.30
30304;DHT22;17112;48.636;10.152;2023-07-28T02:53:55;16.70;69.50
30304;DHT22;17112;48.636;10.152;2023-07-28T02:56:21;16.70;69.50
30304;DHT22;17112;48.636;10.152;2023-07-28T02:58:48;16.70;69.50
30304;DHT22;17112;48.636;10.152;2023-07-28T03:01:14;16.70;69.60
30304;DHT22;17112;48.636;10.152;2023-07-28T03:03:40;16.70;69.40
30304;DHT22;17112;48.636;10.152;2023-07-28T03:06:06;16.60;69.20
30304;DHT22;17112;48.636;10.152;2023-07-28T03:08:31;16.60;69.20
30304;DHT22;17112;48.636;10.152;2023-07-28T03:10:58;16.60;69.30
30304;DHT22;17112;48.636;10.152;2023-07-28T03:13:24;16.50;69.40
30304;DHT22;17112;48.636;10.152;2023-07-28T03:15:49;16.50;69.60
30304;DHT22;17112;48.636;10.152;2023-07-28T03:18:15;16.50;69.80
30304;DHT22;17112;48.636;10.152;2023-07-28T03:20:41;16.40;69.80
30304;DHT22;17112;48.636;10.152;2023-07-28T03:23:06;16.40;69.90
30304;DHT22;17112;48.636;10.152;2023-07-28T03:25:32;16.40;70.00
30304;DHT22;17112;48.636;10.152;2023-07-28T03:27:58;16.40;70.10
30304;DHT22;17112;48.636;10.152;2023-07-28T03:30:24;16.40;70.20
30304;DHT22;17112;48.636;10.152;2023-07-28T03:32:49;16.40;70.10
30304;DHT22;17112;48.636;10.152;2023-07-28T03:35:15;16.40;70.70
30304;DHT22;17112;48.636;10.152;2023-07-28T03:37:41;16.40;69.90
30304;DHT22;17112;48.636;10.152;2023-07-28T03:40:07;16.30;69.90
30304;DHT22;17112;48.636;10.152;2023-07-28T03:42:33;16.30;70.10
30304;DHT22;17112;48.636;10.152;2023-07-28T03:44:59;16.30;70.30
30304;DHT22;17112;48.636;10.152;2023-07-28T03:47:25;16.30;70.30
30304;DHT22;17112;48.636;10.152;2023-07-28T03:49:50;16.20;70.30
30304;DHT22;17112;48.636;10.152;2023-07-28T03:52:16;16.20;70.20
30304;DHT22;17112;48.636;10.152;2023-07-28T03:54:42;16.20;70.10
30304;DHT22;17112;48.636;10.152;2023-07-28T03:57:09;16.20;70.20
30304;DHT22;17112;48.636;10.152;2023-07-28T03:59:35;16.20;70.20
30304;DHT22;17112;48.636;10.152;2023-07-28T04:02:01;16.20;70.10
30304;DHT22;17112;48.636;10.152;2023-07-28T04:04:27;16.20;70.00
30304;DHT22;17112;48.636;10.152;2023-07-28T04:06:53;16.10;70.00
30304;DHT22;17112;48.636;10.152;2023-07-28T04:09:19;16.10;70.00
30304;DHT22;17112;48.636;10.152;2023-07-28T04:11:45;16.00;70.00
30304;DHT22;17112;48.636;10.152;2023-07-28T04:14:11;16.10;70.10
30304;DHT22;17112;48.636;10.152;2023-07-28T04:16:37;16.00;70.20
30304;DHT22;17112;48.636;10.152;2023-07-28T04:19:03;16.00;70.40
30304;DHT22;17112;48.636;10.152;2023-07-28T04:21:29;16.00;70.50
30304;DHT22;17112;48.636;10.152;2023-07-28T04:23:54;16.00;70.60
30304;DHT22;17112;48.636;10.152;2023-07-28T04:26:20;16.00;70.90
30304;DHT22;17112;48.636;10.152;2023-07-28T04:28:46;16.00;71.00
30304;DHT22;17112;48.636;10.152;2023-07-28T04:31:12;16.10;71.30
30304;DHT22;17112;48.636;10.152;2023-07-28T04:33:40;16.10;71.50
30304;DHT22;17112;48.636;10.152;2023-07-28T04:36:06;16.10;71.80
30304;DHT22;17112;48.636;10.152;2023-07-28T04:38:32;16.10;72.00
30304;DHT22;17112;48.636;10.152;2023-07-28T04:40:57;16.20;72.10
30304;DHT22;17112;48.636;10.152;2023-07-28T04:43:23;16.30;72.10
30304;DHT22;17112;48.636;10.152;2023-07-28T04:45:49;16.30;72.10
30304;DHT22;17112;48.636;10.152;2023-07-28T04:48:14;16.40;72.10
30304;DHT22;17112;48.636;10.152;2023-07-28T04:50:40;16.50;72.10
30304;DHT22;17112;48.636;10.152;2023-07-28T04:53:06;16.50;72.10
30304;DHT22;17112;48.636;10.152;2023-07-28T04:55:31;16.50;72.10
30304;DHT22;17112;48.636;10.152;2023-07-28T04:57:57;16.60;72.20
30304;DHT22;17112;48.636;10.152;2023-07-28T05:00:23;16.60;72.20
30304;DHT22;17112;48.636;10.152;2023-07-28T05:02:49;16.70;72.30
30304;DHT22;17112;48.636;10.152;2023-07-28T05:05:14;16.70;72.30
30304;DHT22;17112;48.636;10.152;2023-07-28T05:07:40;16.80;72.40
30304;DHT22;17112;48.636;10.152;2023-07-28T05:10:06;16.80;72.40
30304;DHT22;17112;48.636;10.152;2023-07-28T05:12:32;16.90;72.60
30304;DHT22;17112;48.636;10.152;2023-07-28T05:14:58;16.90;72.60
30304;DHT22;17112;48.636;10.152;2023-07-28T05:17:23;16.90;72.60
30304;DHT22;17112;48.636;10.152;2023-07-28T05:19:52;17.00;72.80
30304;DHT22;17112;48.636;10.152;2023-07-28T05:22:18;17.00;73.00
30304;DHT22;17112;48.636;10.152;2023-07-28T05:24:44;17.10;72.90
30304;DHT22;17112;48.636;10.152;2023-07-28T05:27:11;17.20;73.10
30304;DHT22;17112;48.636;10.152;2023-07-28T05:29:37;17.20;73.30
30304;DHT22;17112;48.636;10.152;2023-07-28T05:32:03;17.30;73.30
30304;DHT22;17112;48.636;10.152;2023-07-28T05:34:29;17.40;73.20
30304;DHT22;17112;48.636;10.152;2023-07-28T05:36:55;17.50;73.30
30304;DHT22;17112;48.636;10.152;2023-07-28T05:39:20;17.50;73.40
30304;DHT22;17112;48.636;10.152;2023-07-28T05:41:46;17.70;73.60
30304;DHT22;17112;48.636;10.152;2023-07-28T05:44:12;17.80;73.50
30304;DHT22;17112;48.636;10.152;2023-07-28T05:46:37;17.90;73.50
30304;DHT22;17112;48.636;10.152;2023-07-28T05:49:03;18.00;73.30
30304;DHT22;17112;48.636;10.152;2023-07-28T05:51:29;18.10;73.40
30304;DHT22;17112;48.636;10.152;2023-07-28T05:53:54;18.10;73.20
30304;DHT22;17112;48.636;10.152;2023-07-28T05:56:20;18.20;73.10
30304;DHT22;17112;48.636;10.152;2023-07-28T05:58:46;18.20;73.00
30304;DHT22;17112;48.636;10.152;2023-07-28T06:01:12;18.30;73.00
30304;DHT22;17112;48.636;10.152;2023-07-28T06:03:38;18.40;73.00
30304;DHT22;17112;48.636;10.152;2023-07-28T06:06:04;18.40;72.90
30304;DHT22;17112;48.636;10.152;2023-07-28T06:08:29;18.40;72.80
30304;DHT22;17112;48.636;10.152;2023-07-28T06:10:55;18.50;72.80
30304;DHT22;17112;48.636;10.152;2023-07-28T06:13:21;18.50;72.80
30304;DHT22;17112;48.636;10.152;2023-07-28T06:15:47;18.60;72.90
30304;DHT22;17112;48.636;10.152;2023-07-28T06:18:13;18.60;72.90
30304;DHT22;17112;48.636;10.152;2023-07-28T06:20:42;18.70;73.00
30304;DHT22;17112;48.636;10.152;2023-07-28T06:23:08;18.70;73.40
30304;DHT22;17112;48.636;10.152;2023-07-28T06:25:33;18.80;73.50
30304;DHT22;17112;48.636;10.152;2023-07-28T06:27:59;18.80;73.40
30304;DHT22;17112;48.636;10.152;2023-07-28T06:30:25;18.90;73.40
30304;DHT22;17112;48.636;10.152;2023-07-28T06:32:51;18.90;73.40
30304;DHT22;17112;48.636;10.152;2023-07-28T06:35:17;19.00;73.40
30304;DHT22;17112;48.636;10.152;2023-07-28T06:37:43;19.00;73.30
30304;DHT22;17112;48.636;10.152;2023-07-28T06:40:09;19.00;73.50
30304;DHT22;17112;48.636;10.152;2023-07-28T06:42:35;19.10;73.60
30304;DHT22;17112;48.636;10.152;2023-07-28T06:45:03;19.20;73.80
30304;DHT22;17112;48.636;10.152;2023-07-28T06:47:29;19.20;73.90
30304;DHT22;17112;48.636;10.152;2023-07-28T06:49:55;19.30;73.80
30304;DHT22;17112;48.636;10.152;2023-07-28T06:52:20;19.40;73.80
30304;DHT22;17112;48.636;10.152;2023-07-28T06:54:46;19.50;73.70
30304;DHT22;17112;48.636;10.152;2023-07-28T06:57:14;19.50;73.60
30304;DHT22;17112;48.636;10.152;2023-07-28T06:59:40;19.60;73.80
30304;DHT22;17112;48.636;10.152;2023-07-28T07:02:06;19.70;73.80
30304;DHT22;17112;48.636;10.152;2023-07-28T07:04:32;19.80;73.80
30304;DHT22;17112;48.636;10.152;2023-07-28T07:06:58;19.80;73.70
30304;DHT22;17112;48.636;10.152;2023-07-28T07:09:23;19.90;73.50
30304;DHT22;17112;48.636;10.152;2023-07-28T07:11:50;20.00;73.10
30304;DHT22;17112;48.636;10.152;2023-07-28T07:14:16;20.00;72.80
30304;DHT22;17112;48.636;10.152;2023-07-28T07:16:42;20.10;72.80
30304;DHT22;17112;48.636;10.152;2023-07-28T07:19:08;20.20;72.90
30304;DHT22;17112;48.636;10.152;2023-07-28T07:21:34;20.20;72.70
30304;DHT22;17112;48.636;10.152;2023-07-28T07:24:00;20.30;72.50
30304;DHT22;17112;48.636;10.152;2023-07-28T07:26:25;20.30;72.60
30304;DHT22;17112;48.636;10.152;2023-07-28T07:28:51;20.30;72.90
30304;DHT22;17112;48.636;10.152;2023-07-28T07:31:17;20.40;73.20
30304;DHT22;17112;48.636;10.152;2023-07-28T07:33:43;20.50;74.00
30304;DHT22;17112;48.636;10.152;2023-07-28T07:36:15;20.50;73.40
30304;DHT22;17112;48.636;10.152;2023-07-28T07:38:41;20.60;74.00
30304;DHT22;17112;48.636;10.152;2023-07-28T07:41:08;20.70;73.40
30304;DHT22;17112;48.636;10.152;2023-07-28T07:43:36;20.80;73.20
30304;DHT22;17112;48.636;10.152;2023-07-28T07:46:02;20.90;73.00
30304;DHT22;17112;48.636;10.152;2023-07-28T07:48:27;20.90;72.70
30304;DHT22;17112;48.636;10.152;2023-07-28T07:50:53;21.00;72.70
30304;DHT22;17112;48.636;10.152;2023-07-28T07:53:19;21.10;72.70
30304;DHT22;17112;48.636;10.152;2023-07-28T07:55:44;21.20;72.80
30304;DHT22;17112;48.636;10.152;2023-07-28T07:58:10;21.30;73.00
30304;DHT22;17112;48.636;10.152;2023-07-28T08:00:39;21.40;73.00
30304;DHT22;17112;48.636;10.152;2023-07-28T08:03:04;21.40;72.90
30304;DHT22;17112;48.636;10.152;2023-07-28T08:05:30;21.50;72.70
30304;DHT22;17112;48.636;10.152;2023-07-28T08:07:56;21.60;72.90
30304;DHT22;17112;48.636;10.152;2023-07-28T08:10:22;21.70;72.80
30304;DHT22;17112;48.636;10.152;2023-07-28T08:12:48;21.90;72.70
30304;DHT22;17112;48.636;10.152;2023-07-28T08:15:14;22.00;72.30
30304;DHT22;17112;48.636;10.152;2023-07-28T08:17:40;22.10;72.30
30304;DHT22;17112;48.636;10.152;2023-07-28T08:20:07;22.20;72.00
30304;DHT22;17112;48.636;10.152;2023-07-28T08:22:33;22.40;71.80
30304;DHT22;17112;48.636;10.152;2023-07-28T08:24:58;22.50;71.30
30304;DHT22;17112;48.636;10.152;2023-07-28T08:27:24;22.60;71.10
30304;DHT22;17112;48.636;10.152;2023-07-28T08:29:50;22.80;70.90
30304;DHT22;17112;48.636;10.152;2023-07-28T08:32:15;22.90;70.60
30304;DHT22;17112;48.636;10.152;2023-07-28T08:34:42;23.10;70.50
30304;DHT22;17112;48.636;10.152;2023-07-28T08:37:08;23.20;70.50
30304;DHT22;17112;48.636;10.152;2023-07-28T08:39:33;23.40;70.30
30304;DHT22;17112;48.636;10.152;2023-07-28T08:42:03;23.60;69.50
30304;DHT22;17112;48.636;10.152;2023-07-28T08:44:33;23.70;68.70
30304;DHT22;17112;48.636;10.152;2023-07-28T08:47:03;23.80;67.70
30304;DHT22;17112;48.636;10.152;2023-07-28T08:49:30;23.80;66.90
30304;DHT22;17112;48.636;10.152;2023-07-28T08:52:01;23.70;66.80
30304;DHT22;17112;48.636;10.152;2023-07-28T08:54:27;23.70;67.10
30304;DHT22;17112;48.636;10.152;2023-07-28T08:56:53;23.60;67.00
30304;DHT22;17112;48.636;10.152;2023-07-28T08:59:23;23.60;66.40
30304;DHT22;17112;48.636;10.152;2023-07-28T09:01:54;23.60;66.40
30304;DHT22;17112;48.636;10.152;2023-07-28T09:04:24;23.60;65.90
30304;DHT22;17112;48.636;10.152;2023-07-28T09:06:50;23.50;65.30
30304;DHT22;17112;48.636;10.152;2023-07-28T09:09:18;23.50;65.30
30304;DHT22;17112;48.636;10.152;2023-07-28T09:11:48;23.40;65.60
30304;DHT22;17112;48.636;10.152;2023-07-28T09:14:15;23.40;65.70
30304;DHT22;17112;48.636;10.152;2023-07-28T09:16:45;23.40;65.50
30304;DHT22;17112;48.636;10.152;2023-07-28T09:19:11;23.40;65.50
30304;DHT22;17112;48.636;10.152;2023-07-28T09:21:42;23.40;65.20
30304;DHT22;17112;48.636;10.152;2023-07-28T09:24:10;23.30;65.10
30304;DHT22;17112;48.636;10.152;2023-07-28T09:26:44;23.30;65.00
30304;DHT22;17112;48.636;10.152;2023-07-28T09:29:20;23.30;64.80
30304;DHT22;17112;48.636;10.152;2023-07-28T09:31:47;23.40;64.50
30304;DHT22;17112;48.636;10.152;2023-07-28T09:34:23;23.40;65.50
30304;DHT22;17112;48.636;10.152;2023-07-28T09:36:49;23.40;65.20
30304;DHT22;17112;48.636;10.152;2023-07-28T09:39:15;23.50;66.00
30304;DHT22;17112;48.636;10.152;2023-07-28T09:41:44;23.70;65.70
30304;DHT22;17112;48.636;10.152;2023-07-28T09:44:10;23.80;64.90
30304;DHT22;17112;48.636;10.152;2023-07-28T09:47:00;24.00;64.20
30304;DHT22;17112;48.636;10.152;2023-07-28T09:49:28;24.20;62.50
30304;DHT22;17112;48.636;10.152;2023-07-28T09:51:58;24.40;62.10
30304;DHT22;17112;48.636;10.152;2023-07-28T09:54:28;24.60;61.00
30304;DHT22;17112;48.636;10.152;2023-07-28T09:56:56;24.70;60.30
30304;DHT22;17112;48.636;10.152;2023-07-28T09:59:32;24.90;60.50
30304;DHT22;17112;48.636;10.152;2023-07-28T10:02:01;25.00;58.90
30304;DHT22;17112;48.636;10.152;2023-07-28T10:04:27;25.10;58.20
30304;DHT22;17112;48.636;10.152;2023-07-28T10:06:55;25.10;57.10
30304;DHT22;17112;48.636;10.152;2023-07-28T10:09:27;25.10;57.30
30304;DHT22;17112;48.636;10.152;2023-07-28T10:11:54;25.20;57.30
30304;DHT22;17112;48.636;10.152;2023-07-28T10:14:37;25.30;58.40
30304;DHT22;17112;48.636;10.152;2023-07-28T10:17:04;25.50;58.00
30304;DHT22;17112;48.636;10.152;2023-07-28T10:19:35;25.70;57.90
30304;DHT22;17112;48.636;10.152;2023-07-28T10:22:11;25.90;56.80
30304;DHT22;17112;48.636;10.152;2023-07-28T10:24:57;26.10;56.40
30304;DHT22;17112;48.636;10.152;2023-07-28T10:27:38;26.20;54.60
30304;DHT22;17112;48.636;10.152;2023-07-28T10:30:13;26.30;54.60
30304;DHT22;17112;48.636;10.152;2023-07-28T10:32:44;26.40;54.80
30304;DHT22;17112;48.636;10.152;2023-07-28T10:37:40;26.40;54.40
30304;DHT22;17112;48.636;10.152;2023-07-28T10:40:27;26.40;55.20
30304;DHT22;17112;48.636;10.152;2023-07-28T10:42:54;26.40;54.60
30304;DHT22;17112;48.636;10.152;2023-07-28T10:45:24;26.40;54.70
30304;DHT22;17112;48.636;10.152;2023-07-28T10:47:52;26.40;54.90
30304;DHT22;17112;48.636;10.152;2023-07-28T10:50:18;26.50;53.80
30304;DHT22;17112;48.636;10.152;2023-07-28T10:52:45;26.50;53.40
30304;DHT22;17112;48.636;10.152;2023-07-28T10:55:20;26.50;54.00
30304;DHT22;17112;48.636;10.152;2023-07-28T10:57:46;26.50;53.60
30304;DHT22;17112;48.636;10.152;2023-07-28T11:00:14;26.50;54.00
30304;DHT22;17112;48.636;10.152;2023-07-28T11:02:48;26.50;53.80
30304;DHT22;17112;48.636;10.152;2023-07-28T11:05:30;26.50;53.40
30304;DHT22;17112;48.636;10.152;2023-07-28T11:08:01;26.70;53.70
30304;DHT22;17112;48.636;10.152;2023-07-28T11:10:31;26.80;54.20
30304;DHT22;17112;48.636;10.152;2023-07-28T11:13:00;26.90;53.10
30304;DHT22;17112;48.636;10.152;2023-07-28T11:15:26;27.10;52.80
30304;DHT22;17112;48.636;10.152;2023-07-28T11:17:52;27.10;52.80
30304;DHT22;17112;48.636;10.152;2023-07-28T11:20:28;27.20;52.00
30304;DHT22;17112;48.636;10.152;2023-07-28T11:23:02;27.30;52.60
30304;DHT22;17112;48.636;10.152;2023-07-28T11:25:29;27.40;52.30
30304;DHT22;17112;48.636;10.152;2023-07-28T11:27:56;27.50;51.90
30304;DHT22;17112;48.636;10.152;2023-07-28T11:30:23;27.50;51.60
30304;DHT22;17112;48.636;10.152;2023-07-28T11:32:52;27.50;51.30
30304;DHT22;17112;48.636;10.152;2023-07-28T11:35:21;27.50;51.30
30304;DHT22;17112;48.636;10.152;2023-07-28T11:37:52;27.50;51.00
30304;DHT22;17112;48.636;10.152;2023-07-28T11:40:20;27.50;50.60
30304;DHT22;17112;48.636;10.152;2023-07-28T11:42:54;27.50;50.30
30304;DHT22;17112;48.636;10.152;2023-07-28T11:45:21;27.40;50.20
30304;DHT22;17112;48.636;10.152;2023-07-28T11:47:57;27.40;50.10
30304;DHT22;17112;48.636;10.152;2023-07-28T11:50:28;27.30;49.80
30304;DHT22;17112;48.636;10.152;2023-07-28T11:52:54;27.20;50.00
30304;DHT22;17112;48.636;10.152;2023-07-28T11:55:21;27.10;50.00
30304;DHT22;17112;48.636;10.152;2023-07-28T11:57:47;27.00;50.70
30304;DHT22;17112;48.636;10.152;2023-07-28T12:00:14;26.90;50.50
30304;DHT22;17112;48.636;10.152;2023-07-28T12:02:42;26.80;50.60
30304;DHT22;17112;48.636;10.152;2023-07-28T12:05:15;26.80;51.30
30304;DHT22;17112;48.636;10.152;2023-07-28T12:07:46;26.80;51.50
30304;DHT22;17112;48.636;10.152;2023-07-28T12:10:12;26.80;51.80
30304;DHT22;17112;48.636;10.152;2023-07-28T12:12:46;26.80;51.70
30304;DHT22;17112;48.636;10.152;2023-07-28T12:15:25;26.80;50.60
30304;DHT22;17112;48.636;10.152;2023-07-28T12:18:12;26.80;51.70
30304;DHT22;17112;48.636;10.152;2023-07-28T12:20:48;26.80;51.60
30304;DHT22;17112;48.636;10.152;2023-07-28T12:23:16;26.70;51.70
30304;DHT22;17112;48.636;10.152;2023-07-28T12:25:43;26.70;52.00
30304;DHT22;17112;48.636;10.152;2023-07-28T12:28:09;26.70;51.80
30304;DHT22;17112;48.636;10.152;2023-07-28T12:30:36;26.70;51.70
30304;DHT22;17112;48.636;10.152;2023-07-28T12:33:03;26.60;51.90
30304;DHT22;17112;48.636;10.152;2023-07-28T12:35:30;26.50;51.80
30304;DHT22;17112;48.636;10.152;2023-07-28T12:38:01;26.50;52.40
30304;DHT22;17112;48.636;10.152;2023-07-28T12:40:30;26.40;52.30
30304;DHT22;17112;48.636;10.152;2023-07-28T12:42:57;26.50;52.60
30304;DHT22;17112;48.636;10.152;2023-07-28T12:45:24;26.50;52.70
30304;DHT22;17112;48.636;10.152;2023-07-28T12:47:55;26.50;52.80
30304;DHT22;17112;48.636;10.152;2023-07-28T12:50:21;26.50;53.00
30304;DHT22;17112;48.636;10.152;2023-07-28T12:52:48;26.50;53.10
30304;DHT22;17112;48.636;10.152;2023-07-28T12:55:14;26.50;52.70
30304;DHT22;17112;48.636;10.152;2023-07-28T12:57:40;26.50;52.60
30304;DHT22;17112;48.636;10.152;2023-07-28T13:00:07;26.40;52.30
30304;DHT22;17112;48.636;10.152;2023-07-28T13:02:42;26.30;52.20
30304;DHT22;17112;48.636;10.152;2023-07-28T13:05:10;26.20;53.20
30304;DHT22;17112;48.636;10.152;2023-07-28T13:07:36;26.20;53.40
30304;DHT22;17112;48.636;10.152;2023-07-28T13:10:02;26.00;53.80
30304;DHT22;17112;48.636;10.152;2023-07-28T13:12:29;25.90;54.20
30304;DHT22;17112;48.636;10.152;2023-07-28T13:14:55;25.80;54.70
30304;DHT22;17112;48.636;10.152;2023-07-28T13:17:20;25.70;54.80
30304;DHT22;17112;48.636;10.152;2023-07-28T13:19:46;25.60;54.90
30304;DHT22;17112;48.636;10.152;2023-07-28T13:22:12;25.40;55.30
30304;DHT22;17112;48.636;10.152;2023-07-28T13:24:37;25.40;56.40
30304;DHT22;17112;48.636;10.152;2023-07-28T13:27:04;25.40;56.60
30304;DHT22;17112;48.636;10.152;2023-07-28T13:29:30;25.30;57.30
30304;DHT22;17112;48.636;10.152;2023-07-28T13:31:59;25.30;57.30
30304;DHT22;17112;48.636;10.152;2023-07-28T13:34:28;25.40;57.50
30304;DHT22;17112;48.636;10.152;2023-07-28T13:36:55;25.40;57.90
30304;DHT22;17112;48.636;10.152;2023-07-28T13:39:21;25.50;58.40
30304;DHT22;17112;48.636;10.152;2023-07-28T13:41:46;25.60;58.00
30304;DHT22;17112;48.636;10.152;2023-07-28T13:44:12;25.70;58.10
30304;DHT22;17112;48.636;10.152;2023-07-28T13:46:38;25.80;58.10
30304;DHT22;17112;48.636;10.152;2023-07-28T13:49:03;25.90;57.00
30304;DHT22;17112;48.636;10.152;2023-07-28T13:51:29;25.90;56.00
30304;DHT22;17112;48.636;10.152;2023-07-28T13:53:55;25.90;55.50
30304;DHT22;17112;48.636;10.152;2023-07-28T13:56:20;25.80;55.90
30304;DHT22;17112;48.636;10.152;2023-07-28T13:58:46;25.80;56.30
30304;DHT22;17112;48.636;10.152;2023-07-28T14:01:12;25.70;56.10
30304;DHT22;17112;48.636;10.152;2023-07-28T14:03:37;25.70;56.10
30304;DHT22;17112;48.636;10.152;2023-07-28T14:06:03;25.60;56.20
30304;DHT22;17112;48.636;10.152;2023-07-28T14:08:29;25.50;56.30
30304;DHT22;17112;48.636;10.152;2023-07-28T14:10:55;25.50;56.50
30304;DHT22;17112;48.636;10.152;2023-07-28T14:13:21;25.40;56.60
30304;DHT22;17112;48.636;10.152;2023-07-28T14:15:47;25.40;56.70
30304;DHT22;17112;48.636;10.152;2023-07-28T14:18:13;25.30;56.80
30304;DHT22;17112;48.636;10.152;2023-07-28T14:20:38;25.20;57.30
30304;DHT22;17112;48.636;10.152;2023-07-28T14:23:21;25.20;57.20
30304;DHT22;17112;48.636;10.152;2023-07-28T14:25:47;25.10;57.00
30304;DHT22;17112;48.636;10.152;2023-07-28T14:28:12;25.10;56.90
30304;DHT22;17112;48.636;10.152;2023-07-28T14:30:38;25.00;56.90
30304;DHT22;17112;48.636;10.152;2023-07-28T14:33:04;25.00;57.00
30304;DHT22;17112;48.636;10.152;2023-07-28T14:35:29;25.00;56.80
30304;DHT22;17112;48.636;10.152;2023-07-28T14:37:55;25.00;57.00
30304;DHT22;17112;48.636;10.152;2023-07-28T14:40:20;25.00;57.10
30304;DHT22;17112;48.636;10.152;2023-07-28T14:42:46;25.00;57.40
30304;DHT22;17112;48.636;10.152;2023-07-28T14:45:12;25.00;57.00
30304;DHT22;17112;48.636;10.152;2023-07-28T14:47:38;25.00;56.80
30304;DHT22;17112;48.636;10.152;2023-07-28T14:50:04;25.00;56.90
30304;DHT22;17112;48.636;10.152;2023-07-28T14:52:29;25.00;56.90
30304;DHT22;17112;48.636;10.152;2023-07-28T14:54:55;25.00;57.10
30304;DHT22;17112;48.636;10.152;2023-07-28T14:57:21;25.00;57.00
30304;DHT22;17112;48.636;10.152;2023-07-28T14:59:46;25.00;56.80
30304;DHT22;17112;48.636;10.152;2023-07-28T15:02:12;24.90;56.50
30304;DHT22;17112;48.636;10.152;2023-07-28T15:04:39;24.90;56.60
30304;DHT22;17112;48.636;10.152;2023-07-28T15:07:05;24.90;56.60
30304;DHT22;17112;48.636;10.152;2023-07-28T15:09:30;24.80;57.20
30304;DHT22;17112;48.636;10.152;2023-07-28T15:11:56;24.80;56.60
30304;DHT22;17112;48.636;10.152;2023-07-28T15:14:21;24.70;56.50
30304;DHT22;17112;48.636;10.152;2023-07-28T15:16:47;24.70;56.80
30304;DHT22;17112;48.636;10.152;2023-07-28T15:19:13;24.60;57.00
30304;DHT22;17112;48.636;10.152;2023-07-28T15:21:39;24.50;57.30